createdAt,value
2022-11-03T00:01:50.114Z,95905.97
2022-11-03T00:04:19.842Z,95906.31
2022-11-03T00:06:50.386Z,95895.34
2022-11-03T00:09:19.589Z,95895.91
2022-11-03T00:11:48.708Z,95886.47
2022-11-03T00:14:19.178Z,95893.31
2022-11-03T00:16:47.356Z,95883.16
2022-11-03T00:19:16.998Z,95876.06
2022-11-03T00:21:45.116Z,95870.97
2022-11-03T00:24:14.589Z,95867.91
2022-11-03T00:26:42.298Z,95864.59
2022-11-03T00:29:12.034Z,95865.44
2022-11-03T00:31:41.651Z,95854.28
2022-11-03T00:34:11.619Z,95862.34
2022-11-03T00:36:41.413Z,95861.50
2022-11-03T00:39:09.305Z,95860.66
2022-11-03T00:41:39.000Z,95856.66
2022-11-03T00:44:07.152Z,95851.44
2022-11-03T00:46:35.483Z,95845.53
2022-11-03T00:49:04.036Z,95838.31
2022-11-03T00:51:33.930Z,95849.53
2022-11-03T00:54:02.886Z,95838.44
2022-11-03T00:56:32.409Z,95832.06
2022-11-03T00:59:04.011Z,95829.59
2022-11-03T01:01:36.276Z,95832.53
2022-11-03T01:04:25.411Z,95826.97
2022-11-03T01:07:02.672Z,95827.81
2022-11-03T01:09:37.225Z,95828.72
2022-11-03T01:12:12.594Z,95820.47
2022-11-03T01:14:45.189Z,95806.03
2022-11-03T01:17:22.059Z,95807.22
2022-11-03T01:20:11.947Z,95807.47
2022-11-03T01:22:43.769Z,95802.34
2022-11-03T01:25:16.163Z,95803.41
2022-11-03T01:27:57.776Z,95796.56
2022-11-03T01:30:26.929Z,95807.81
2022-11-03T01:32:54.575Z,95804.38
2022-11-03T01:35:22.191Z,95811.81
2022-11-03T01:37:49.846Z,95811.69
2022-11-03T01:40:17.467Z,95814.41
2022-11-03T01:42:45.108Z,95814.28
2022-11-03T01:45:12.709Z,95804.84
2022-11-03T01:47:44.788Z,95807.66
2022-11-03T01:50:16.392Z,95800.56
2022-11-03T01:52:47.680Z,95792.78
2022-11-03T01:55:20.584Z,95793.50
2022-11-03T01:57:55.077Z,95784.84
2022-11-03T02:00:23.222Z,95783.09
2022-11-03T02:02:52.682Z,95778.16
2022-11-03T02:05:24.952Z,95781.97
2022-11-03T02:07:57.977Z,95773.59
2022-11-03T02:10:26.431Z,95781.16
2022-11-03T02:12:54.587Z,95775.06
2022-11-03T02:15:24.567Z,95762.25
2022-11-03T02:17:57.006Z,95761.19
2022-11-03T02:20:27.856Z,95759.53
2022-11-03T02:23:26.380Z,95760.50
2022-11-03T02:25:58.124Z,95750.56
2022-11-03T02:28:27.917Z,95756.34
2022-11-03T02:31:04.912Z,95750.91
2022-11-03T02:33:39.167Z,95747.69
2022-11-03T02:36:13.655Z,95750.53
2022-11-03T02:38:48.539Z,95745.56
2022-11-03T02:41:19.504Z,95743.81
2022-11-03T02:43:50.344Z,95737.66
2022-11-03T02:46:19.036Z,95742.03
2022-11-03T02:48:48.005Z,95741.69
2022-11-03T02:51:15.720Z,95738.75
2022-11-03T02:53:53.663Z,95737.31
2022-11-03T02:56:25.412Z,95722.47
2022-11-03T02:58:58.386Z,95720.72
2022-11-03T03:01:34.395Z,95713.41
2022-11-03T03:04:06.317Z,95697.72
2022-11-03T03:06:39.345Z,95704.72
2022-11-03T03:09:11.847Z,95705.97
2022-11-03T03:11:46.849Z,95698.97
2022-11-03T03:14:17.162Z,95693.97
2022-11-03T03:16:55.080Z,95698.25
2022-11-03T03:19:31.666Z,95690.44
2022-11-03T03:22:07.816Z,95683.22
2022-11-03T03:24:42.392Z,95686.78
2022-11-03T03:27:17.653Z,95678.00
2022-11-03T03:29:50.269Z,95684.28
2022-11-03T03:32:23.249Z,95676.97
2022-11-03T03:34:52.966Z,95670.38
2022-11-03T03:37:29.373Z,95679.22
2022-11-03T03:40:01.677Z,95679.78
2022-11-03T03:42:33.850Z,95680.16
2022-11-03T03:45:02.170Z,95687.16
2022-11-03T03:47:32.184Z,95692.09
2022-11-03T03:49:59.895Z,95689.97
2022-11-03T03:52:28.537Z,95683.81
2022-11-03T03:54:57.201Z,95681.69
2022-11-03T03:57:26.295Z,95676.75
2022-11-03T03:59:55.460Z,95672.13
2022-11-03T04:02:23.195Z,95672.59
2022-11-03T04:04:50.868Z,95668.94
2022-11-03T04:07:40.819Z,95673.41
2022-11-03T04:10:11.508Z,95657.09
2022-11-03T04:12:59.077Z,95656.28
2022-11-03T04:15:45.601Z,95658.63
2022-11-03T04:18:30.931Z,95652.50
2022-11-03T04:21:16.227Z,95656.03
2022-11-03T04:23:44.014Z,95648.50
2022-11-03T04:26:14.876Z,95654.50
2022-11-03T04:28:42.646Z,95652.63
2022-11-03T04:31:13.604Z,95647.19
2022-11-03T04:33:41.855Z,95638.09
2022-11-03T04:36:14.549Z,95639.28
2022-11-03T04:38:44.204Z,95633.47
2022-11-03T04:41:17.259Z,95631.13
2022-11-03T04:43:46.312Z,95627.25
2022-11-03T04:46:18.634Z,95620.19
2022-11-03T04:48:47.545Z,95614.31
2022-11-03T04:51:17.349Z,95620.28
2022-11-03T04:53:49.695Z,95616.66
2022-11-03T04:56:21.068Z,95611.25
2022-11-03T04:58:49.194Z,95604.91
2022-11-03T05:01:29.876Z,95607.19
2022-11-03T05:03:57.702Z,95600.81
2022-11-03T05:06:28.295Z,95594.78
2022-11-03T05:08:59.430Z,95590.19
2022-11-03T05:11:32.614Z,95589.84
2022-11-03T05:14:02.733Z,95585.22
2022-11-03T05:16:32.454Z,95570.69
2022-11-03T05:19:00.585Z,95571.53
2022-11-03T05:21:28.703Z,95570.34
2022-11-03T05:23:59.279Z,95576.72
2022-11-03T05:26:30.534Z,95578.50
2022-11-03T05:29:01.513Z,95570.59
2022-11-03T05:31:32.640Z,95581.34
2022-11-03T05:34:02.447Z,95567.16
2022-11-03T05:36:31.761Z,95572.00
2022-11-03T05:39:03.909Z,95573.88
2022-11-03T05:41:31.758Z,95571.66
2022-11-03T05:44:01.973Z,95558.53
2022-11-03T05:46:34.876Z,95555.44
2022-11-03T05:49:03.962Z,95552.78
2022-11-03T05:51:35.531Z,95546.59
2022-11-03T05:54:05.695Z,95540.34
2022-11-03T05:56:34.365Z,95548.16
2022-11-03T05:59:03.102Z,95543.78
2022-11-03T06:01:35.546Z,95544.38
2022-11-03T06:04:13.663Z,95538.00
2022-11-03T06:06:41.811Z,95528.81
2022-11-03T06:09:13.810Z,95539.44
2022-11-03T06:11:42.026Z,95544.03
2022-11-03T06:14:18.671Z,95537.31
2022-11-03T06:16:52.253Z,95533.53
2022-11-03T06:19:27.024Z,95536.94
2022-11-03T06:21:58.083Z,95532.94
2022-11-03T06:24:30.902Z,95544.28
2022-11-03T06:26:59.254Z,95541.78
2022-11-03T06:29:27.284Z,95539.66
2022-11-03T06:31:58.100Z,95543.78
2022-11-03T06:34:35.177Z,95539.19
2022-11-03T06:37:13.454Z,95542.72
2022-11-03T06:39:41.435Z,95542.38
2022-11-03T06:42:14.123Z,95536.47
2022-11-03T06:44:43.233Z,95542.50
2022-11-03T06:47:22.817Z,95528.94
2022-11-03T06:49:55.078Z,95529.50
2022-11-03T06:52:28.536Z,95520.44
2022-11-03T06:55:02.840Z,95517.34
2022-11-03T06:57:35.079Z,95526.69
2022-11-03T07:00:28.145Z,95534.34
2022-11-03T07:03:06.694Z,95526.56
2022-11-03T07:05:35.598Z,95521.84
2022-11-03T07:08:05.212Z,95513.72
2022-11-03T07:10:34.749Z,95513.13
2022-11-03T07:13:07.869Z,95519.50
2022-11-03T07:15:39.674Z,95511.72
2022-11-03T07:18:16.787Z,95501.69
2022-11-03T07:20:44.446Z,95498.50
2022-11-03T07:23:18.272Z,95503.09
2022-11-03T07:25:49.090Z,95495.19
2022-11-03T07:28:16.725Z,95508.66
2022-11-03T07:30:44.481Z,95515.59
2022-11-03T07:33:17.626Z,95513.13
2022-11-03T07:38:34.520Z,95509.56
2022-11-03T07:41:02.233Z,95494.25
2022-11-03T07:43:32.822Z,95494.94
2022-11-03T07:46:02.648Z,95499.41
2022-11-03T07:48:37.706Z,95495.53
2022-11-03T07:51:19.049Z,95491.66
2022-11-03T07:53:48.409Z,95497.91
2022-11-03T07:56:20.633Z,95490.34
2022-11-03T07:58:51.071Z,95487.75
2022-11-03T08:01:28.625Z,95473.84
2022-11-03T08:04:01.685Z,95466.66
2022-11-03T08:06:29.288Z,95454.25
2022-11-03T08:08:56.891Z,95452.25
2022-11-03T08:11:28.025Z,95446.91
2022-11-03T08:13:57.208Z,95438.41
2022-11-03T08:16:24.834Z,95441.31
2022-11-03T08:18:52.434Z,95435.28
2022-11-03T08:21:21.418Z,95421.34
2022-11-03T08:23:49.115Z,95424.56
2022-11-03T08:26:16.949Z,95423.50
2022-11-03T08:28:44.722Z,95414.63
2022-11-03T08:31:13.282Z,95403.69
2022-11-03T08:33:41.982Z,95394.09
2022-11-03T08:36:10.430Z,95405.00
2022-11-03T08:38:42.276Z,95402.44
2022-11-03T08:41:09.832Z,95393.94
2022-11-03T08:43:37.437Z,95389.75
2022-11-03T08:46:16.751Z,95389.78
2022-11-03T08:48:46.040Z,95391.72
2022-11-03T08:51:14.534Z,95373.84
2022-11-03T08:53:44.421Z,95371.13
2022-11-03T08:56:13.749Z,95382.97
2022-11-03T08:58:44.151Z,95373.56
2022-11-03T09:01:12.421Z,95365.06
2022-11-03T09:03:40.272Z,95370.19
2022-11-03T09:06:09.036Z,95359.22
2022-11-03T09:11:26.972Z,95360.97
2022-11-03T09:13:54.577Z,95365.44
2022-11-03T09:16:22.248Z,95358.03
2022-11-03T09:18:49.961Z,95348.00
2022-11-03T09:21:17.658Z,95339.66
2022-11-03T09:23:45.243Z,95339.28
2022-11-03T09:26:12.906Z,95329.19
2022-11-03T09:28:41.838Z,95324.50
2022-11-03T09:31:09.438Z,95321.28
2022-11-03T09:33:37.051Z,95319.44
2022-11-03T09:36:04.692Z,95311.75
2022-11-03T09:38:32.305Z,95315.69
2022-11-03T09:41:00.424Z,95319.38
2022-11-03T09:43:30.076Z,95305.53
2022-11-03T09:45:59.864Z,95313.47
2022-11-03T09:48:27.622Z,95307.03
2022-11-03T09:50:55.824Z,95299.09
2022-11-03T09:53:23.478Z,95304.59
2022-11-03T09:55:51.177Z,95301.56
2022-11-03T09:58:19.575Z,95303.47
2022-11-03T10:00:50.451Z,95306.44
2022-11-03T10:03:20.769Z,95300.47
2022-11-03T10:05:49.193Z,95296.44
2022-11-03T10:08:23.542Z,95294.66
2022-11-03T10:10:51.289Z,95286.16
2022-11-03T10:13:24.743Z,95281.75
2022-11-03T10:15:52.577Z,95266.44
2022-11-03T10:18:21.977Z,95261.91
2022-11-03T10:20:49.629Z,95266.72
2022-11-03T10:23:17.226Z,95264.22
2022-11-03T10:25:46.529Z,95259.00
2022-11-03T10:28:17.668Z,95255.47
2022-11-03T10:31:13.033Z,95252.19
2022-11-03T10:33:51.760Z,95244.38
2022-11-03T10:36:26.887Z,95244.22
2022-11-03T10:38:55.452Z,95245.06
2022-11-03T10:41:24.698Z,95241.50
2022-11-03T10:44:04.386Z,95237.81
2022-11-03T10:49:21.858Z,95232.31
2022-11-03T10:51:51.428Z,95224.78
2022-11-03T10:54:20.926Z,95218.13
2022-11-03T10:56:50.416Z,95211.75
2022-11-03T10:59:20.186Z,95204.69
2022-11-03T11:01:48.139Z,95215.53
2022-11-03T11:04:17.452Z,95211.00
2022-11-03T11:06:47.353Z,95210.47
2022-11-03T11:09:18.402Z,95208.03
2022-11-03T11:12:00.665Z,95195.13
2022-11-03T11:14:39.162Z,95191.00
2022-11-03T11:17:07.688Z,95194.28
2022-11-03T11:20:08.952Z,95203.44
2022-11-03T11:22:38.035Z,95206.06
2022-11-03T11:25:05.867Z,95203.31
2022-11-03T11:28:00.994Z,95207.72
2022-11-03T11:31:05.365Z,95199.88
2022-11-03T11:33:35.067Z,95201.25
2022-11-03T11:36:20.391Z,95196.19
2022-11-03T11:39:09.269Z,95195.09
2022-11-03T11:42:08.995Z,95189.72
2022-11-03T11:45:03.358Z,95184.91
2022-11-03T11:47:33.994Z,95178.13
2022-11-03T11:50:13.341Z,95170.31
2022-11-03T11:52:44.158Z,95166.59
2022-11-03T11:55:20.558Z,95163.88
2022-11-03T11:57:49.063Z,95168.78
2022-11-03T12:00:22.561Z,95170.13
2022-11-03T12:02:50.671Z,95156.97
2022-11-03T12:05:23.658Z,95155.31
2022-11-03T12:07:51.290Z,95146.22
2022-11-03T12:10:23.191Z,95143.34
2022-11-03T12:12:51.361Z,95152.44
2022-11-03T12:15:55.356Z,95166.09
2022-11-03T12:18:39.076Z,95155.44
2022-11-03T12:21:10.743Z,95146.94
2022-11-03T12:23:43.253Z,95148.59
2022-11-03T12:26:18.102Z,95143.22
2022-11-03T12:28:46.423Z,95146.50
2022-11-03T12:31:14.023Z,95139.50
2022-11-03T12:33:41.592Z,95126.16
2022-11-03T12:36:09.872Z,95119.00
2022-11-03T12:38:37.789Z,95112.03
2022-11-03T12:41:19.585Z,95109.91
2022-11-03T12:43:49.397Z,95107.47
2022-11-03T12:46:17.481Z,95100.34
2022-11-03T12:48:45.134Z,95107.31
2022-11-03T12:51:13.820Z,95106.66
2022-11-03T12:53:42.034Z,95109.44
2022-11-03T12:56:10.888Z,95104.69
2022-11-03T12:58:38.548Z,95100.63
2022-11-03T13:01:08.244Z,95091.19
2022-11-03T13:03:37.258Z,95089.38
2022-11-03T13:06:10.223Z,95081.53
2022-11-03T13:08:38.255Z,95080.75
2022-11-03T13:11:26.110Z,95077.16
2022-11-03T13:13:54.155Z,95066.53
2022-11-03T13:16:23.169Z,95064.75
2022-11-03T13:18:50.779Z,95055.97
2022-11-03T13:21:18.868Z,95061.03
2022-11-03T13:23:46.456Z,95052.38
2022-11-03T13:26:14.039Z,95048.81
2022-11-03T13:28:41.919Z,95049.31
2022-11-03T13:31:10.463Z,95037.59
2022-11-03T13:33:39.723Z,95037.34
2022-11-03T13:36:07.666Z,95037.06
2022-11-03T13:38:35.335Z,95026.47
2022-11-03T13:41:08.358Z,95027.75
2022-11-03T13:43:36.671Z,95022.84
2022-11-03T13:46:05.164Z,95019.69
2022-11-03T13:51:22.354Z,95007.88
2022-11-03T13:59:25.509Z,95004.28
2022-11-03T14:04:41.961Z,95004.72
2022-11-03T14:07:11.460Z,94999.97
2022-11-03T14:09:39.145Z,94990.81
2022-11-03T14:12:24.674Z,94987.53
2022-11-03T14:14:52.310Z,94989.31
2022-11-03T14:17:19.870Z,94985.38
2022-11-03T14:19:52.098Z,94990.19
2022-11-03T14:22:22.080Z,94990.34
2022-11-03T14:24:49.923Z,94988.19
2022-11-03T14:27:18.440Z,95000.72
2022-11-03T14:29:49.882Z,94998.56
2022-11-03T14:32:18.518Z,94979.91
2022-11-03T14:34:46.935Z,94977.16
2022-11-03T14:37:15.179Z,94970.44
2022-11-03T14:39:44.278Z,94957.88
2022-11-03T14:42:15.564Z,94952.66
2022-11-03T14:44:45.128Z,94951.00
2022-11-03T14:47:14.572Z,94959.94
2022-11-03T14:49:42.313Z,94945.75
2022-11-03T14:52:10.299Z,94959.06
2022-11-03T14:54:37.952Z,94946.84
2022-11-03T14:57:06.980Z,94961.16
2022-11-03T14:59:35.259Z,94956.41
2022-11-03T15:02:04.298Z,94947.75
2022-11-03T15:04:32.120Z,94954.13
2022-11-03T15:06:59.678Z,94946.31
2022-11-03T15:09:27.327Z,94928.50
2022-11-03T15:11:55.043Z,94928.81
2022-11-03T15:14:24.222Z,94911.84
2022-11-03T15:16:51.848Z,94901.72
2022-11-03T15:19:19.738Z,94902.00
2022-11-03T15:21:47.350Z,94916.47
2022-11-03T15:27:02.493Z,94902.44
2022-11-03T15:29:31.642Z,94900.06
2022-11-03T15:31:59.248Z,94895.44
2022-11-03T15:34:26.911Z,94884.69
2022-11-03T15:36:54.491Z,94874.69
2022-11-03T15:39:22.079Z,94861.13
2022-11-03T15:41:49.634Z,94856.91
2022-11-03T15:44:17.261Z,94863.34
2022-11-03T15:46:46.180Z,94866.28
2022-11-03T15:49:13.822Z,94864.63
2022-11-03T15:51:41.371Z,94855.31
2022-11-03T15:54:09.176Z,94852.03
2022-11-03T15:56:36.820Z,94846.03
2022-11-03T15:59:04.442Z,94847.94
2022-11-03T16:01:32.170Z,94829.03
2022-11-03T16:04:01.102Z,94814.06
2022-11-03T16:06:53.683Z,94797.50
2022-11-03T16:09:16.311Z,94791.91
2022-11-03T16:11:43.921Z,94793.19
2022-11-03T16:14:11.503Z,94801.88
2022-11-03T16:16:39.110Z,94807.53
2022-11-03T16:19:08.049Z,94804.81
2022-11-03T16:21:35.663Z,94801.00
2022-11-03T16:24:03.346Z,94800.47
2022-11-03T16:26:31.535Z,94789.41
2022-11-03T16:28:59.261Z,94786.91
2022-11-03T16:31:27.330Z,94778.59
2022-11-03T16:33:54.926Z,94773.56
2022-11-03T16:36:23.861Z,94772.19
2022-11-03T16:38:51.554Z,94764.69
2022-11-03T16:41:19.121Z,94763.88
2022-11-03T16:43:48.025Z,94762.25
2022-11-03T16:46:15.561Z,94762.25
2022-11-03T16:48:43.167Z,94757.53
2022-11-03T16:51:11.323Z,94752.84
2022-11-03T16:53:40.315Z,94747.13
2022-11-03T16:56:08.987Z,94737.16
2022-11-03T16:58:36.609Z,94748.09
2022-11-03T17:01:04.631Z,94741.84
2022-11-03T17:03:32.604Z,94724.06
2022-11-03T17:06:00.182Z,94719.88
2022-11-03T17:11:35.542Z,94703.56
2022-11-03T17:14:04.373Z,94706.50
2022-11-03T17:16:32.183Z,94698.69
2022-11-03T17:19:00.007Z,94685.28
2022-11-03T17:21:28.065Z,94679.63
2022-11-03T17:23:55.771Z,94682.53
2022-11-03T17:26:34.928Z,94666.56
2022-11-03T17:29:05.708Z,94657.94
2022-11-03T17:31:33.337Z,94647.69
2022-11-03T17:34:02.032Z,94651.06
2022-11-03T17:36:29.598Z,94646.84
2022-11-03T17:39:00.212Z,94648.84
2022-11-03T17:41:30.691Z,94639.66
2022-11-03T17:43:58.355Z,94635.59
2022-11-03T17:46:25.942Z,94623.66
2022-11-03T17:48:53.585Z,94631.44
2022-11-03T17:51:21.233Z,94622.44
2022-11-03T17:53:48.845Z,94613.25
2022-11-03T17:56:34.193Z,94604.72
2022-11-03T17:59:03.374Z,94601.81
2022-11-03T18:01:31.120Z,94595.47
2022-11-03T18:03:59.199Z,94578.56
2022-11-03T18:06:26.817Z,94579.56
2022-11-03T18:08:54.361Z,94576.31
2022-11-03T18:11:43.961Z,94567.38
2022-11-03T18:14:13.208Z,94555.44
2022-11-03T18:16:41.594Z,94543.31
2022-11-03T18:19:12.646Z,94543.59
2022-11-03T18:21:40.804Z,94524.31
2022-11-03T18:24:12.088Z,94509.78
2022-11-03T18:26:39.787Z,94508.78
2022-11-03T18:31:44.406Z,94556.03
2022-11-03T18:34:15.957Z,94576.22
2022-11-03T18:36:44.261Z,94557.09
2022-11-03T18:39:17.894Z,94561.53
2022-11-03T18:41:45.886Z,94561.00
2022-11-03T18:44:17.851Z,94544.41
2022-11-03T18:46:47.433Z,94539.03
2022-11-03T18:49:15.569Z,94530.75
2022-11-03T18:51:47.730Z,94502.66
2022-11-03T18:56:50.919Z,94514.63
2022-11-03T18:59:23.565Z,94504.22
2022-11-03T19:01:52.891Z,94499.16
2022-11-03T19:04:20.940Z,94495.03
2022-11-03T19:06:51.232Z,94494.25
2022-11-03T19:09:22.089Z,94484.53
2022-11-03T19:11:50.767Z,94478.31
2022-11-03T19:14:26.372Z,94471.78
2022-11-03T19:19:44.695Z,94472.63
2022-11-03T19:22:20.076Z,94484.53
2022-11-03T19:24:49.814Z,94447.19
2022-11-03T19:27:19.660Z,94446.69
2022-11-03T19:29:48.353Z,94444.25
2022-11-03T19:32:24.477Z,94445.06
2022-11-03T19:34:57.353Z,94429.91
2022-11-03T19:37:25.252Z,94426.84
2022-11-03T19:39:55.821Z,94438.34
2022-11-03T19:42:28.825Z,94414.72
2022-11-03T19:44:58.033Z,94410.00
2022-11-03T19:47:32.528Z,94397.97
2022-11-03T19:50:01.598Z,94400.75
2022-11-03T19:52:33.046Z,94396.66
2022-11-03T19:55:07.336Z,94389.84
2022-11-03T19:57:35.006Z,94370.59
2022-11-03T20:00:03.266Z,94373.72
2022-11-03T20:02:32.420Z,94384.31
2022-11-03T20:05:00.108Z,94393.56
2022-11-03T20:07:31.475Z,94379.75
2022-11-03T20:10:03.213Z,94360.69
2022-11-03T20:12:32.015Z,94385.25
2022-11-03T20:14:59.963Z,94381.50
2022-11-03T20:17:27.561Z,94373.53
2022-11-03T20:19:56.593Z,94353.19
2022-11-03T20:22:30.037Z,94362.13
2022-11-03T20:25:01.317Z,94351.53
2022-11-03T20:27:29.016Z,94340.97
2022-11-03T20:29:57.156Z,94347.66
2022-11-03T20:32:24.721Z,94341.78
2022-11-03T20:34:52.334Z,94332.66
2022-11-03T20:37:21.851Z,94328.59
2022-11-03T20:39:49.896Z,94332.31
2022-11-03T20:42:22.103Z,94315.22
2022-11-03T20:44:49.841Z,94313.28
2022-11-03T20:47:18.313Z,94306.63
2022-11-03T20:49:46.132Z,94295.06
2022-11-03T20:52:14.955Z,94288.69
2022-11-03T20:54:44.449Z,94288.69
2022-11-03T20:57:13.607Z,94283.34
2022-11-03T20:59:41.308Z,94275.34
2022-11-03T21:02:11.902Z,94276.31
2022-11-03T21:04:40.398Z,94272.59
2022-11-03T21:07:07.973Z,94262.81
2022-11-03T21:09:35.651Z,94263.94
2022-11-03T21:12:05.249Z,94263.63
2022-11-03T21:14:32.925Z,94269.81
2022-11-03T21:17:26.565Z,94262.34
2022-11-03T21:20:02.186Z,94249.28
2022-11-03T21:25:24.710Z,94243.41
2022-11-03T21:27:54.858Z,94233.97
2022-11-03T21:30:24.015Z,94231.03
2022-11-03T21:32:51.989Z,94227.91
2022-11-03T21:35:21.757Z,94223.06
2022-11-03T21:37:49.612Z,94211.31
2022-11-03T21:40:17.627Z,94214.56
2022-11-03T21:43:02.836Z,94202.16
2022-11-03T21:45:31.824Z,94200.72
2022-11-03T21:48:19.464Z,94199.75
2022-11-03T21:50:47.507Z,94214.88
2022-11-03T21:53:15.485Z,94222.38
2022-11-03T21:55:43.317Z,94231.66
2022-11-03T21:58:10.896Z,94232.78
2022-11-03T22:00:39.940Z,94229.19
2022-11-03T22:03:07.987Z,94223.34
2022-11-03T22:05:35.706Z,94231.00
2022-11-03T22:08:03.330Z,94223.38
2022-11-03T22:10:32.691Z,94224.72
2022-11-03T22:13:00.265Z,94224.56
2022-11-03T22:15:45.470Z,94223.41
2022-11-03T22:18:14.362Z,94227.47
2022-11-03T22:20:59.541Z,94228.78
2022-11-03T22:23:44.895Z,94235.63
2022-11-03T22:26:33.877Z,94233.16
2022-11-03T22:29:18.325Z,94234.97
2022-11-03T22:31:46.024Z,94241.63
2022-11-03T22:34:46.837Z,94237.34
2022-11-03T22:37:14.437Z,94246.19
2022-11-03T22:39:59.323Z,94246.19
2022-11-03T22:45:34.896Z,94262.47
2022-11-03T22:48:04.711Z,94254.31
2022-11-03T22:50:33.936Z,94257.44
2022-11-03T22:53:21.519Z,94249.78
2022-11-03T22:55:48.225Z,94246.84
2022-11-03T22:58:15.807Z,94240.81
2022-11-03T23:00:43.561Z,94259.72
2022-11-03T23:03:11.327Z,94320.94
2022-11-03T23:05:40.645Z,94329.09
2022-11-03T23:08:08.279Z,94328.44
2022-11-03T23:10:35.852Z,94345.84
2022-11-03T23:13:03.397Z,94360.50
2022-11-03T23:15:34.017Z,94365.19
2022-11-03T23:18:20.041Z,94363.22
2022-11-03T23:21:07.708Z,94386.75
2022-11-03T23:23:53.160Z,94395.31
2022-11-03T23:26:21.338Z,94396.78
2022-11-03T23:28:49.063Z,94394.19
2022-11-03T23:31:17.163Z,94402.03
2022-11-03T23:33:45.377Z,94399.78
2022-11-03T23:36:17.091Z,94409.09
2022-11-03T23:38:45.414Z,94410.41
2022-11-03T23:41:15.370Z,94423.59
2022-11-03T23:43:44.393Z,94421.81
2022-11-03T23:46:31.491Z,94438.28
2022-11-03T23:48:59.716Z,94441.00
2022-11-03T23:51:30.209Z,94445.38
2022-11-03T23:53:59.284Z,94443.59
2022-11-03T23:56:46.029Z,94453.19
2022-11-03T23:59:15.371Z,94471.47
